Time;durP1;ratioP1;P1;durP2;ratioP2;P2;SDS_P1;SDS_P2;PMS_P1;PMS_P2;Temp;Humidity;BMP_temperature;BMP_pressure;BME280_temperature;BME280_humidity;BME280_pressure;Samples;Min_cycle;Max_cycle;Signal;HPM_P1;HPM_P2
2021/03/30 00:00:45;;;;;;;6.80;2.77;;;;;;;6.97;58.29;97693.50;5081548;28;20512;-87
2021/03/30 00:03:11;;;;;;;5.50;2.40;;;;;;;7.04;58.26;97700.00;5069084;28;20044;-87
2021/03/30 00:05:37;;;;;;;8.63;2.60;;;;;;;6.86;59.15;97691.59;5060091;28;20024;-86
2021/03/30 00:08:03;;;;;;;9.87;2.90;;;;;;;6.89;59.01;97699.25;5067468;28;20039;-86
2021/03/30 00:10:41;;;;;;;7.87;2.27;;;;;;;6.87;59.23;97695.06;5050377;28;20032;-87
2021/03/30 00:13:07;;;;;;;7.47;3.13;;;;;;;6.76;59.35;97699.22;5070005;28;20182;-87
2021/03/30 00:15:33;;;;;;;12.33;4.23;;;;;;;6.70;59.87;97704.81;5061565;28;20024;-87
2021/03/30 00:17:59;;;;;;;8.40;2.80;;;;;;;6.48;60.57;97700.16;5052184;28;20132;-87
2021/03/30 00:20:25;;;;;;;8.10;2.97;;;;;;;6.44;61.21;97692.59;5070806;28;20097;-86
2021/03/30 00:22:51;;;;;;;10.23;3.47;;;;;;;6.31;61.62;97692.56;5075687;28;20533;-86
2021/03/30 00:25:17;;;;;;;9.40;3.53;;;;;;;6.36;61.04;97695.69;5060019;28;20040;-87
2021/03/30 00:27:43;;;;;;;10.70;3.57;;;;;;;6.29;61.17;97691.81;5051784;28;20039;-86
2021/03/30 00:30:12;;;;;;;8.83;3.77;;;;;;;6.35;60.90;97694.88;5075348;28;20501;-87
2021/03/30 00:32:39;;;;;;;6.57;3.63;;;;;;;6.31;61.30;97693.38;5076052;28;20545;-86
2021/03/30 00:35:07;;;;;;;7.03;3.07;;;;;;;6.26;61.17;97690.22;5076231;28;20106;-87
2021/03/30 00:37:32;;;;;;;7.97;3.47;;;;;;;6.25;61.42;97687.72;5064684;28;20035;-87
2021/03/30 00:39:58;;;;;;;9.90;3.70;;;;;;;6.25;61.86;97678.09;5057748;28;20033;-86
2021/03/30 00:42:24;;;;;;;12.80;3.57;;;;;;;6.23;61.34;97689.56;5079351;28;20039;-87
2021/03/30 00:44:52;;;;;;;7.60;3.23;;;;;;;6.29;61.22;97682.19;5052399;28;20208;-87
2021/03/30 00:47:19;;;;;;;11.20;3.70;;;;;;;6.20;61.52;97682.75;5085208;28;20106;-87
2021/03/30 00:49:47;;;;;;;8.47;3.70;;;;;;;6.26;60.87;97679.75;5061928;28;20036;-87
2021/03/30 00:52:13;;;;;;;10.83;3.53;;;;;;;6.29;61.65;97673.50;5066630;28;20032;-87
2021/03/30 00:55:02;;;;;;;9.33;3.57;;;;;;;6.36;60.72;97683.47;5048555;28;20606;-86
2021/03/30 00:57:29;;;;;;;7.37;3.50;;;;;;;6.41;60.62;97682.38;5065294;28;20029;-86
2021/03/30 00:59:55;;;;;;;11.83;3.90;;;;;;;6.34;60.84;97687.13;5063389;28;20047;-87
2021/03/30 01:02:21;;;;;;;9.30;3.40;;;;;;;6.31;61.09;97688.16;5058381;28;20498;-86
2021/03/30 01:04:46;;;;;;;6.27;3.10;;;;;;;6.35;60.73;97684.41;5057510;28;20035;-86
2021/03/30 01:07:12;;;;;;;9.27;2.90;;;;;;;6.24;61.44;97673.81;5051114;28;21082;-86
2021/03/30 01:09:50;;;;;;;11.90;3.60;;;;;;;6.36;61.35;97678.25;5058921;28;20035;-87
2021/03/30 01:12:46;;;;;;;10.67;3.37;;;;;;;6.35;61.00;97681.81;5039095;28;20612;-86
2021/03/30 01:15:25;;;;;;;10.60;2.83;;;;;;;6.36;59.87;97680.84;5062836;28;20531;-86
2021/03/30 01:18:07;;;;;;;8.07;2.53;;;;;;;6.56;57.79;97681.34;5069755;28;20086;-86
2021/03/30 01:21:11;;;;;;;11.40;2.43;;;;;;;6.47;58.03;97681.94;5055461;28;21085;-86
2021/03/30 01:23:55;;;;;;;12.73;3.43;;;;;;;6.32;58.95;97674.16;5036369;28;20045;-86
2021/03/30 01:26:42;;;;;;;8.37;2.73;;;;;;;6.27;58.81;97678.84;5061768;28;20392;-87
2021/03/30 01:29:22;;;;;;;6.80;2.90;;;;;;;6.20;58.97;97674.91;5059157;28;20294;-87
2021/03/30 01:31:55;;;;;;;11.10;4.23;;;;;;;5.96;60.13;97679.06;5066916;28;20037;-87
2021/03/30 01:34:23;;;;;;;8.75;3.50;;;;;;;5.91;59.92;97674.94;5065404;28;20461;-87
2021/03/30 01:36:51;;;;;;;6.87;2.73;;;;;;;5.88;60.90;97679.53;5074627;28;20024;-87
2021/03/30 01:39:19;;;;;;;8.83;2.93;;;;;;;5.84;60.55;97676.25;5071352;28;20536;-86
2021/03/30 01:42:08;;;;;;;8.17;2.97;;;;;;;5.91;61.11;97674.13;5054565;28;20497;-87
2021/03/30 01:44:35;;;;;;;11.50;3.40;;;;;;;5.93;60.92;97672.25;5078186;28;20542;-87
2021/03/30 01:47:01;;;;;;;5.30;2.70;;;;;;;5.95;60.75;97672.19;5052513;28;20494;-87
2021/03/30 01:49:29;;;;;;;10.23;2.60;;;;;;;5.90;61.38;97669.81;5065941;28;20056;-87
2021/03/30 01:51:57;;;;;;;5.57;2.57;;;;;;;5.91;62.04;97668.91;5073133;28;20458;-87
2021/03/30 01:54:24;;;;;;;6.57;2.70;;;;;;;5.88;61.98;97663.84;5054993;28;20083;-87
2021/03/30 01:56:53;;;;;;;9.93;2.90;;;;;;;5.77;62.13;97669.75;5078226;28;20032;-87
2021/03/30 01:59:19;;;;;;;6.20;2.40;;;;;;;5.76;62.25;97660.22;5055268;28;20092;-87
2021/03/30 02:01:46;;;;;;;5.50;2.53;;;;;;;5.82;61.99;97659.00;5071167;28;20107;-87
2021/03/30 02:04:18;;;;;;;11.30;2.50;;;;;;;5.82;62.56;97654.63;5058767;28;20029;-87
2021/03/30 02:06:47;;;;;;;6.40;2.30;;;;;;;5.77;61.95;97651.47;5067384;28;20169;-87
2021/03/30 02:09:20;;;;;;;7.23;2.33;;;;;;;5.68;62.78;97654.63;5057234;28;20043;-87
2021/03/30 02:12:10;;;;;;;8.43;2.80;;;;;;;5.55;63.18;97662.38;5088955;28;20043;-87
2021/03/30 02:14:33;;;;;;;8.67;2.90;;;;;;;5.47;63.06;97658.56;5076435;28;20067;-87
2021/03/30 02:17:10;;;;;;;8.17;2.83;;;;;;;5.46;63.48;97657.72;5057872;28;20406;-87
2021/03/30 02:20:01;;;;;;;8.17;2.93;;;;;;;5.47;63.11;97654.19;5064628;28;20483;-87
2021/03/30 02:22:33;;;;;;;8.53;2.40;;;;;;;5.47;63.56;97655.97;5051972;28;20117;-86
2021/03/30 02:25:01;;;;;;;6.40;2.67;;;;;;;5.42;64.17;97653.59;5071019;28;20502;-87
2021/03/30 02:27:29;;;;;;;6.87;3.30;;;;;;;5.42;63.96;97656.22;5066342;28;20115;-87
2021/03/30 02:29:56;;;;;;;9.07;2.90;;;;;;;5.30;64.54;97657.81;5075134;28;20536;-86
2021/03/30 02:32:24;;;;;;;7.97;3.10;;;;;;;5.30;64.48;97655.19;5063255;28;20127;-88
2021/03/30 02:34:52;;;;;;;7.37;2.90;;;;;;;5.22;64.90;97649.59;5053400;28;20478;-87
2021/03/30 02:37:19;;;;;;;5.83;2.67;;;;;;;5.15;65.49;97648.28;5089301;27;20535;-86
2021/03/30 02:39:47;;;;;;;10.20;4.20;;;;;;;5.18;65.24;97648.09;5077813;28;20465;-87
2021/03/30 02:42:15;;;;;;;6.80;3.10;;;;;;;5.02;66.12;97648.16;5055973;28;20508;-87
2021/03/30 02:44:41;;;;;;;10.23;3.10;;;;;;;5.00;66.50;97651.78;5069745;28;20479;-87
2021/03/30 02:47:13;;;;;;;8.37;3.10;;;;;;;5.12;66.40;97648.44;5060189;28;20449;-85
2021/03/30 02:49:41;;;;;;;8.20;3.20;;;;;;;5.07;66.56;97637.47;5073721;28;20494;-87
2021/03/30 02:52:08;;;;;;;6.57;2.73;;;;;;;5.02;66.67;97645.53;5078490;28;20465;-87
2021/03/30 02:54:34;;;;;;;13.27;3.33;;;;;;;5.00;67.16;97642.22;5055566;28;20829;-87
2021/03/30 02:57:01;;;;;;;6.03;2.60;;;;;;;4.98;66.96;97657.09;5078717;28;20459;-87
2021/03/30 02:59:31;;;;;;;6.80;2.97;;;;;;;4.91;66.65;97651.38;5069006;28;20097;-86
2021/03/30 03:02:00;;;;;;;9.53;3.40;;;;;;;4.75;67.78;97652.38;5058305;28;20616;-86
2021/03/30 03:04:26;;;;;;;7.57;3.30;;;;;;;4.70;67.27;97647.44;5050860;28;20996;-87
2021/03/30 03:06:53;;;;;;;10.77;5.00;;;;;;;4.75;66.62;97655.81;5052337;28;20451;-87
2021/03/30 03:09:19;;;;;;;15.93;4.70;;;;;;;4.67;66.93;97655.44;5065873;28;20447;-88
2021/03/30 03:11:47;;;;;;;9.13;5.37;;;;;;;4.54;66.93;97662.25;5069935;28;20466;-87
2021/03/30 03:14:16;;;;;;;9.43;4.30;;;;;;;4.45;67.14;97664.44;5071430;28;20537;-86
2021/03/30 03:16:43;;;;;;;7.90;3.93;;;;;;;4.37;68.03;97660.59;5069534;28;20525;-86
2021/03/30 03:19:09;;;;;;;7.67;4.13;;;;;;;4.49;67.66;97663.38;5072177;28;20447;-86
2021/03/30 03:21:39;;;;;;;10.50;3.90;;;;;;;4.47;67.80;97665.19;5067163;28;20463;-86
2021/03/30 03:24:08;;;;;;;8.73;3.60;;;;;;;4.47;68.00;97665.19;5055629;28;20453;-85
2021/03/30 03:26:35;;;;;;;9.30;3.37;;;;;;;4.49;67.51;97663.38;5071531;28;20460;-86
2021/03/30 03:29:01;;;;;;;7.17;2.97;;;;;;;4.56;67.63;97660.38;5056442;28;20447;-87
2021/03/30 03:31:29;;;;;;;11.70;3.73;;;;;;;4.54;67.81;97676.13;5067630;28;20451;-84
2021/03/30 03:34:05;;;;;;;7.87;3.37;;;;;;;4.62;67.41;97668.69;5049836;28;20032;-84
2021/03/30 03:36:42;;;;;;;7.00;2.93;;;;;;;4.47;67.42;97673.03;5053132;28;21020;-83
2021/03/30 03:39:10;;;;;;;8.53;3.27;;;;;;;4.43;68.04;97666.31;5046727;28;20474;-84
2021/03/30 03:41:37;;;;;;;10.63;3.23;;;;;;;4.46;68.20;97667.88;5075209;28;20465;-84
2021/03/30 03:44:34;;;;;;;5.87;2.87;;;;;;;4.33;67.75;97674.72;5080030;28;20462;-84
2021/03/30 03:46:59;;;;;;;8.23;3.90;;;;;;;4.25;68.81;97668.16;5057970;28;20446;-84
2021/03/30 03:49:27;;;;;;;7.13;3.33;;;;;;;4.26;68.89;97671.63;5060369;28;21130;-84
2021/03/30 03:52:07;;;;;;;8.33;3.33;;;;;;;4.29;68.37;97671.44;5062279;28;20032;-83
2021/03/30 03:54:34;;;;;;;6.73;3.23;;;;;;;4.33;68.70;97674.72;5045152;28;20470;-84
2021/03/30 03:57:04;;;;;;;8.23;3.20;;;;;;;4.34;68.44;97666.81;5044575;28;20537;-84
2021/03/30 03:59:33;;;;;;;6.63;2.87;;;;;;;4.36;68.07;97670.19;5075995;28;21471;-84
2021/03/30 04:02:11;;;;;;;7.13;3.00;;;;;;;4.39;68.29;97672.63;5061742;28;20458;-83
2021/03/30 04:05:03;;;;;;;9.90;3.13;;;;;;;4.38;67.89;97672.69;5071923;28;20496;-84
2021/03/30 04:07:35;;;;;;;6.93;3.07;;;;;;;4.50;67.64;97674.63;5059008;28;21041;-83
2021/03/30 04:10:05;;;;;;;6.03;2.63;;;;;;;4.49;67.51;97673.78;5062193;28;20493;-84
2021/03/30 04:12:33;;;;;;;7.73;2.70;;;;;;;4.46;67.16;97667.88;5045894;28;20656;-84
2021/03/30 04:15:00;;;;;;;6.93;2.77;;;;;;;4.51;67.34;97665.03;5063849;28;20456;-83
2021/03/30 04:17:25;;;;;;;8.07;2.57;;;;;;;4.51;67.58;97657.22;5059790;28;20454;-83
2021/03/30 04:19:51;;;;;;;9.37;3.07;;;;;;;4.38;67.95;97672.69;5043272;28;20544;-83
2021/03/30 04:22:17;;;;;;;6.57;3.00;;;;;;;4.23;67.60;97670.03;5044750;28;20050;-83
2021/03/30 04:24:44;;;;;;;6.63;2.63;;;;;;;4.06;68.25;97671.84;5049786;28;20039;-83
2021/03/30 04:27:11;;;;;;;8.73;3.67;;;;;;;4.21;67.28;97674.47;5064070;28;20024;-82
2021/03/30 04:29:39;;;;;;;6.57;3.90;;;;;;;4.20;68.26;97680.59;5065212;28;20520;-83
2021/03/30 04:32:05;;;;;;;11.20;3.83;;;;;;;4.13;68.53;97674.06;5052034;28;20520;-83
2021/03/30 04:34:31;;;;;;;7.80;2.73;;;;;;;4.15;68.28;97673.97;5059625;28;20538;-83
2021/03/30 04:36:57;;;;;;;6.63;3.00;;;;;;;3.98;69.08;97677.47;5045827;28;20587;-83
2021/03/30 04:39:23;;;;;;;8.20;3.40;;;;;;;3.84;69.07;97682.59;5041411;28;20138;-83
2021/03/30 04:41:48;;;;;;;10.20;3.90;;;;;;;3.68;70.13;97680.78;5063407;28;20089;-83
2021/03/30 04:44:15;;;;;;;8.97;3.50;;;;;;;3.80;69.90;97684.53;5080120;28;20485;-83
2021/03/30 04:46:40;;;;;;;6.93;3.07;;;;;;;3.93;69.16;97682.94;5071117;28;20398;-83
2021/03/30 04:49:06;;;;;;;8.70;3.33;;;;;;;3.86;69.68;97681.59;5050582;28;20473;-82
2021/03/30 04:51:32;;;;;;;9.17;3.20;;;;;;;3.94;70.27;97681.19;5042484;28;20030;-83
2021/03/30 04:53:58;;;;;;;8.97;4.30;;;;;;;4.01;69.57;97685.13;5050081;28;20024;-81
2021/03/30 04:56:31;;;;;;;8.07;3.20;;;;;;;3.99;69.62;97686.97;5065763;28;20043;-83
2021/03/30 04:58:56;;;;;;;8.05;3.15;;;;;;;4.03;69.58;97683.28;5046844;28;20090;-82
2021/03/30 05:01:22;;;;;;;9.60;3.60;;;;;;;3.94;69.91;97684.63;5038454;28;20379;-82
2021/03/30 05:03:48;;;;;;;12.13;3.93;;;;;;;3.96;70.18;97684.56;5066024;28;20029;-82
2021/03/30 05:06:14;;;;;;;11.33;3.83;;;;;;;3.93;70.14;97698.56;5044900;28;20044;-82
2021/03/30 05:08:40;;;;;;;10.80;4.00;;;;;;;3.96;70.29;97682.78;5032752;28;20587;-82
2021/03/30 05:11:06;;;;;;;8.03;4.20;;;;;;;3.96;69.33;97695.78;5041026;28;20087;-82
2021/03/30 05:13:31;;;;;;;10.23;4.30;;;;;;;4.00;68.87;97701.69;5048759;28;20017;-82
2021/03/30 05:15:57;;;;;;;8.93;4.90;;;;;;;4.07;69.28;97699.59;5044486;28;20094;-81
2021/03/30 05:18:23;;;;;;;8.33;3.50;;;;;;;4.16;69.33;97696.50;5044118;28;20033;-82
2021/03/30 05:20:49;;;;;;;9.03;3.20;;;;;;;4.28;68.65;97697.56;5037429;28;20041;-82
2021/03/30 05:23:14;;;;;;;10.83;5.00;;;;;;;4.42;68.06;97695.88;5039447;28;20031;-82
2021/03/30 05:25:40;;;;;;;8.97;3.80;;;;;;;4.56;67.29;97702.06;5068206;28;20036;-82
2021/03/30 05:28:06;;;;;;;9.17;3.27;;;;;;;4.77;66.78;97689.63;5067239;28;20424;-82
2021/03/30 05:30:32;;;;;;;7.97;3.07;;;;;;;4.92;66.24;97694.78;5068850;28;20041;-82
2021/03/30 05:32:58;;;;;;;8.50;3.60;;;;;;;4.93;65.78;97693.88;5068233;28;20517;-82
2021/03/30 05:35:24;;;;;;;8.33;3.50;;;;;;;5.35;64.78;97696.66;5079723;28;20106;-83
2021/03/30 05:37:49;;;;;;;7.67;3.60;;;;;;;5.82;63.15;97691.16;5070269;28;20974;-83
2021/03/30 05:40:17;;;;;;;9.13;3.20;;;;;;;6.10;61.81;97695.59;5065168;28;20064;-83
2021/03/30 05:42:43;;;;;;;8.43;3.67;;;;;;;6.03;62.31;97699.47;5070254;28;20032;-83
2021/03/30 05:45:16;;;;;;;7.77;3.00;;;;;;;6.32;60.95;97695.06;5073448;28;20449;-81
2021/03/30 05:47:42;;;;;;;7.60;3.13;;;;;;;6.12;60.81;97701.53;5065806;28;20827;-83
2021/03/30 05:50:12;;;;;;;7.33;3.07;;;;;;;6.01;61.19;97700.53;5051769;28;20444;-82
2021/03/30 05:52:46;;;;;;;8.97;3.43;;;;;;;6.31;60.93;97700.41;5038868;28;20883;-83
2021/03/30 05:55:21;;;;;;;7.73;3.13;;;;;;;6.90;59.33;97706.16;5046327;28;20483;-82
2021/03/30 05:57:50;;;;;;;12.90;3.93;;;;;;;7.07;57.59;97702.44;5066305;28;20478;-81
2021/03/30 06:00:18;;;;;;;8.73;3.57;;;;;;;7.40;57.70;97711.59;5079140;28;20457;-81
2021/03/30 06:02:47;;;;;;;9.50;3.40;;;;;;;6.97;58.17;97711.81;5070465;28;20469;-80
2021/03/30 06:05:15;;;;;;;5.93;2.77;;;;;;;7.06;58.59;97712.06;5075097;28;20021;-81
2021/03/30 06:07:41;;;;;;;9.40;3.40;;;;;;;6.98;57.96;97718.75;5058209;28;20055;-81
2021/03/30 06:10:18;;;;;;;13.13;3.47;;;;;;;7.69;55.44;97710.47;5061296;28;20047;-81
2021/03/30 06:12:44;;;;;;;6.90;2.83;;;;;;;7.99;55.55;97717.16;5055732;28;20028;-82
2021/03/30 06:15:12;;;;;;;10.87;2.77;;;;;;;8.44;52.91;97717.50;5055971;28;20378;-83
2021/03/30 06:17:45;;;;;;;7.40;2.97;;;;;;;8.74;52.15;97712.66;5069635;28;20043;-82
2021/03/30 06:20:24;;;;;;;6.78;2.80;;;;;;;8.71;52.01;97720.75;5058496;28;20032;-81
2021/03/30 06:22:56;;;;;;;7.80;3.07;;;;;;;9.03;51.07;97714.94;5055440;28;20032;-82
2021/03/30 06:25:38;;;;;;;7.63;2.90;;;;;;;9.38;50.43;97714.94;5051401;28;20490;-81
2021/03/30 06:28:15;;;;;;;7.00;2.83;;;;;;;9.96;50.11;97704.41;5083115;28;20033;-83
2021/03/30 06:31:03;;;;;;;6.40;2.67;;;;;;;10.95;47.98;97716.69;5057993;28;20036;-82
2021/03/30 06:33:34;;;;;;;11.03;3.00;;;;;;;10.39;48.44;97716.81;5067671;28;20039;-82
2021/03/30 06:36:19;;;;;;;7.60;3.30;;;;;;;11.24;46.39;97710.84;5071117;28;20046;-81
2021/03/30 06:39:04;;;;;;;9.47;3.60;;;;;;;10.97;46.60;97708.69;5065534;28;20090;-81
2021/03/30 06:44:39;;;;;;;8.23;3.37;;;;;;;11.78;45.06;97702.72;4997834;28;20038;-81
2021/03/30 06:47:17;;;;;;;8.33;3.83;;;;;;;12.37;43.80;97705.63;5042407;28;20119;-80
2021/03/30 06:50:01;;;;;;;12.37;4.43;;;;;;;11.32;47.46;97706.59;5071851;28;20035;-80
2021/03/30 06:52:37;;;;;;;;;;;;;;;10.78;47.63;97709.34;5094795;28;20032;-81
2021/03/30 06:55:06;;;;;;;7.67;3.50;;;;;;;11.70;45.07;97706.97;5072724;28;20813;-81
2021/03/30 06:57:39;;;;;;;8.03;3.77;;;;;;;11.53;45.82;97697.84;5046399;28;20363;-80
2021/03/30 07:00:08;;;;;;;9.85;3.40;;;;;;;12.41;43.85;97694.69;5047853;28;20037;-81
2021/03/30 07:02:58;;;;;;;8.30;3.60;;;;;;;12.52;43.25;97700.81;5048446;28;20036;-81
2021/03/30 07:05:31;;;;;;;8.23;3.40;;;;;;;13.56;41.16;97686.97;5048281;28;20029;-80
2021/03/30 07:08:00;;;;;;;11.18;3.60;;;;;;;13.64;40.96;97689.72;5061705;28;20040;-81
2021/03/30 07:10:26;;;;;;;16.00;4.50;;;;;;;13.45;41.26;97695.06;5066273;28;20031;-81
2021/03/30 07:12:54;;;;;;;9.13;3.87;;;;;;;14.05;40.11;97686.81;5080305;28;20040;-79
2021/03/30 07:15:23;;;;;;;9.40;4.10;;;;;;;14.90;38.96;97693.63;5056050;28;20024;-79
2021/03/30 07:17:53;;;;;;;7.20;3.83;;;;;;;14.98;38.46;97685.75;5073770;28;20025;-81
2021/03/30 07:20:19;;;;;;;11.27;5.17;;;;;;;15.78;37.69;97677.78;5051681;28;20101;-80
2021/03/30 07:22:49;;;;;;;6.57;3.50;;;;;;;16.28;37.92;97682.38;5072578;28;20042;-81
2021/03/30 07:25:21;;;;;;;6.63;3.30;;;;;;;16.61;36.16;97677.19;5078237;28;20057;-80
2021/03/30 07:28:00;;;;;;;15.87;12.53;;;;;;;16.24;37.24;97681.03;5057360;28;20494;-81
2021/03/30 07:30:30;;;;;;;20.53;12.13;;;;;;;16.85;36.81;97676.44;5071375;28;20028;-81
2021/03/30 07:33:21;;;;;;;10.13;7.17;;;;;;;17.97;34.41;97672.25;5052707;28;20036;-81
2021/03/30 07:35:47;;;;;;;9.00;5.00;;;;;;;17.77;34.30;97666.47;5036358;28;20422;-82
2021/03/30 07:38:20;;;;;;;10.80;4.33;;;;;;;17.71;34.46;97675.13;5066173;28;20119;-81
2021/03/30 07:40:47;;;;;;;7.72;3.30;;;;;;;17.85;34.01;97671.78;5052903;28;20043;-81
2021/03/30 07:43:42;;;;;;;8.10;3.57;;;;;;;18.34;33.08;97674.28;5054544;28;20032;-81
2021/03/30 07:46:13;;;;;;;7.60;3.40;;;;;;;18.39;33.65;97671.94;5058754;28;20069;-81
2021/03/30 07:48:40;;;;;;;10.30;4.25;;;;;;;19.15;32.33;97672.19;5044085;28;20063;-81
2021/03/30 07:51:20;;;;;;;9.32;3.53;;;;;;;19.60;31.98;97681.16;5041373;28;20059;-79
2021/03/30 07:53:55;;;;;;;6.55;3.85;;;;;;;18.78;33.49;97677.28;5068626;28;20036;-79
2021/03/30 07:56:23;;;;;;;7.22;3.40;;;;;;;18.94;32.89;97678.16;5050681;28;20032;-79
2021/03/30 07:58:50;;;;;;;8.00;3.33;;;;;;;19.00;33.21;97682.78;5035081;28;20729;-79
2021/03/30 08:01:19;;;;;;;9.30;3.75;;;;;;;19.11;32.63;97679.69;5049883;28;20244;-79
2021/03/30 08:03:48;;;;;;;9.80;4.80;;;;;;;19.64;31.60;97677.16;5051778;28;20039;-79
2021/03/30 08:06:20;;;;;;;10.02;3.78;;;;;;;19.78;31.66;97676.34;5047115;28;20025;-79
2021/03/30 08:08:51;;;;;;;15.07;8.45;;;;;;;19.84;31.64;97675.59;5053663;28;20044;-78
2021/03/30 08:11:38;;;;;;;8.32;4.03;;;;;;;20.10;31.17;97677.00;5050382;28;20032;-78
2021/03/30 08:14:19;;;;;;;7.53;3.80;;;;;;;20.63;30.02;97677.75;5040327;28;20032;-78
2021/03/30 08:16:49;;;;;;;7.43;3.72;;;;;;;19.57;31.40;97679.69;5065907;28;20404;-78
2021/03/30 08:19:16;;;;;;;7.13;3.35;;;;;;;20.00;32.02;97675.44;5078483;28;20420;-79
2021/03/30 08:22:08;;;;;;;9.30;4.57;;;;;;;19.76;31.54;97673.84;5053725;28;20033;-78
2021/03/30 08:24:45;;;;;;;8.90;4.03;;;;;;;19.38;30.92;97682.84;5063100;28;20027;-79
2021/03/30 08:27:37;;;;;;;10.30;4.53;;;;;;;20.40;29.87;97672.50;5050906;28;20038;-79
2021/03/30 08:30:06;;;;;;;8.52;4.82;;;;;;;20.41;29.89;97672.28;5054445;28;20036;-78
2021/03/30 08:32:33;;;;;;;9.50;4.95;;;;;;;20.94;29.00;97675.63;5058265;28;20032;-78
2021/03/30 08:35:28;;;;;;;9.68;5.47;;;;;;;21.44;28.59;97674.91;5066587;28;20036;-79
2021/03/30 08:37:54;;;;;;;11.75;6.05;;;;;;;21.37;28.54;97681.00;5058517;28;20048;-78
2021/03/30 08:40:35;;;;;;;10.05;5.38;;;;;;;21.32;28.47;97674.53;5058959;28;20030;-79
2021/03/30 08:43:22;;;;;;;11.02;5.93;;;;;;;20.65;29.68;97678.38;5056321;28;20041;-79
2021/03/30 08:46:05;;;;;;;9.57;5.30;;;;;;;21.98;27.94;97674.28;5055464;28;20107;-81
2021/03/30 08:48:32;;;;;;;9.60;5.97;;;;;;;22.04;26.95;97681.53;5065625;28;20040;-79
2021/03/30 08:50:59;;;;;;;11.35;5.68;;;;;;;22.97;25.68;97685.50;5050031;28;20033;-78
2021/03/30 08:53:30;;;;;;;11.48;6.05;;;;;;;22.62;25.66;97678.53;5064321;28;20028;-78
2021/03/30 08:55:56;;;;;;;9.25;5.90;;;;;;;23.45;25.74;97677.31;5056481;28;20048;-78
2021/03/30 08:58:28;;;;;;;8.45;5.45;;;;;;;22.90;25.51;97686.47;5047135;28;20090;-79
2021/03/30 09:01:05;;;;;;;10.82;5.93;;;;;;;23.19;25.40;97683.47;5045481;28;20032;-78
2021/03/30 09:03:31;;;;;;;9.00;4.60;;;;;;;24.12;23.10;97675.44;5063061;28;20453;-79
2021/03/30 09:05:57;;;;;;;9.80;5.20;;;;;;;24.43;23.09;97671.25;5064517;28;20028;-79
2021/03/30 09:08:41;;;;;;;8.43;5.05;;;;;;;24.81;23.34;97675.84;5057371;28;20063;-78
2021/03/30 09:11:19;;;;;;;10.05;5.70;;;;;;;24.43;23.24;97672.06;5048470;28;20028;-78
2021/03/30 09:14:06;;;;;;;9.98;5.43;;;;;;;24.16;23.24;97679.34;5104712;28;20044;-78
2021/03/30 09:16:34;;;;;;;11.25;5.78;;;;;;;24.99;20.75;97673.28;5050717;28;20492;-79
2021/03/30 09:19:32;;;;;;;11.05;6.55;;;;;;;23.70;22.34;97676.72;5049463;28;20064;-79
2021/03/30 09:22:06;;;;;;;9.23;5.78;;;;;;;25.28;20.44;97671.84;5050513;28;20037;-79
2021/03/30 09:27:46;;;;;;;9.13;5.57;;;;;;;26.75;19.97;97660.50;5068344;28;20036;-79
2021/03/30 09:30:20;;;;;;;15.75;6.10;;;;;;;24.47;21.59;97664.41;5064006;28;20442;-79
2021/03/30 09:32:48;;;;;;;11.38;5.43;;;;;;;24.52;21.49;97669.16;5048512;28;20032;-79
2021/03/30 09:35:18;;;;;;;11.40;6.07;;;;;;;26.28;19.69;97655.66;5050153;28;20026;-79
2021/03/30 09:37:56;;;;;;;11.73;7.43;;;;;;;25.09;21.11;97660.16;5065860;28;20124;-78
2021/03/30 09:40:29;;;;;;;11.15;6.85;;;;;;;24.56;21.63;97660.44;5059273;28;20035;-78
2021/03/30 09:42:55;;;;;;;12.95;6.93;;;;;;;24.52;21.74;97653.84;5044394;28;20091;-79
2021/03/30 09:45:33;;;;;;;10.55;6.40;;;;;;;25.07;21.44;97651.47;5063927;28;20179;-79
2021/03/30 09:48:01;;;;;;;13.02;6.82;;;;;;;26.23;20.39;97646.59;5047880;28;20588;-79
2021/03/30 09:50:32;;;;;;;11.25;6.25;;;;;;;25.38;20.63;97645.25;5046815;28;20077;-79
2021/03/30 09:53:07;;;;;;;10.27;6.93;;;;;;;25.82;20.89;97650.72;5058127;28;20028;-79
2021/03/30 09:55:39;;;;;;;11.23;6.05;;;;;;;26.80;20.05;97645.28;5052477;28;20552;-79
2021/03/30 09:58:09;;;;;;;10.60;6.40;;;;;;;26.24;19.65;97642.84;5067910;28;20361;-79
2021/03/30 10:00:39;;;;;;;10.98;6.50;;;;;;;25.02;20.40;97651.31;5072498;28;20043;-79
2021/03/30 10:03:06;;;;;;;10.80;5.68;;;;;;;26.79;18.29;97640.09;5070072;28;20036;-79
2021/03/30 10:05:37;;;;;;;11.38;6.68;;;;;;;26.20;18.76;97637.09;5055608;28;20382;-79
2021/03/30 10:08:04;;;;;;;10.13;7.18;;;;;;;25.27;20.71;97634.38;5066778;28;20033;-79
2021/03/30 10:10:47;;;;;;;13.38;7.03;;;;;;;26.00;20.61;97631.09;5071829;28;20047;-79
2021/03/30 10:13:23;;;;;;;10.68;6.55;;;;;;;24.96;21.78;97633.34;5081563;28;20087;-79
2021/03/30 10:15:50;;;;;;;17.63;6.95;;;;;;;25.67;20.75;97624.09;5072511;28;20094;-79
2021/03/30 10:18:17;;;;;;;10.60;6.35;;;;;;;25.70;19.95;97623.66;5069808;28;20032;-79
2021/03/30 10:20:51;;;;;;;10.27;5.93;;;;;;;25.78;19.61;97625.25;5042324;28;20116;-79
2021/03/30 10:23:21;;;;;;;10.35;6.70;;;;;;;25.72;19.53;97616.19;5058712;28;20036;-80
2021/03/30 10:25:50;;;;;;;12.75;6.00;;;;;;;27.23;19.12;97616.44;5052630;28;20563;-79
2021/03/30 10:28:33;;;;;;;12.30;6.30;;;;;;;26.58;19.33;97616.31;5071658;28;20159;-80
2021/03/30 10:31:31;;;;;;;8.73;5.88;;;;;;;28.08;18.25;97610.63;5091189;28;20209;-79
2021/03/30 10:34:58;;;;;;;;;;;;;;;27.42;19.03;97614.47;5073745;28;20572;-80
2021/03/30 10:38:06;;;;;;;9.40;7.07;;;;;;;27.44;18.70;97609.69;5006264;28;19925;-80
2021/03/30 10:40:39;;;;;;;9.52;6.22;;;;;;;27.43;18.90;97611.56;5048178;28;20041;-80
2021/03/30 10:43:20;;;;;;;8.88;5.88;;;;;;;27.57;18.44;97605.94;5059937;28;20116;-80
2021/03/30 10:45:48;;;;;;;12.75;6.05;;;;;;;27.42;18.48;97604.50;5049237;28;20039;-79
2021/03/30 10:48:21;;;;;;;8.75;5.72;;;;;;;26.98;17.82;97595.00;5037821;28;20037;-79
2021/03/30 10:50:54;;;;;;;9.60;6.20;;;;;;;27.09;18.01;97598.78;5056719;28;20040;-79
2021/03/30 10:53:22;;;;;;;10.98;6.43;;;;;;;27.40;17.78;97593.13;5063203;28;20040;-79
2021/03/30 10:55:55;;;;;;;10.60;5.32;;;;;;;27.97;16.13;97587.16;5051317;28;20180;-79
2021/03/30 10:58:22;;;;;;;9.65;4.90;;;;;;;27.85;16.34;97587.16;5041046;28;20126;-79
2021/03/30 11:00:48;;;;;;;11.35;4.63;;;;;;;26.63;16.67;97592.19;5052050;28;20485;-78
2021/03/30 11:03:14;;;;;;;10.00;4.35;;;;;;;26.35;16.71;97582.75;5032395;28;20067;-79
2021/03/30 11:05:41;;;;;;;7.85;3.97;;;;;;;26.44;17.09;97586.78;5045318;28;20030;-79
2021/03/30 11:08:08;;;;;;;9.13;5.30;;;;;;;25.38;17.32;97587.91;5067258;28;20040;-79
2021/03/30 11:11:04;;;;;;;8.10;3.95;;;;;;;27.02;16.50;97574.56;5040217;28;20051;-79
2021/03/30 11:13:42;;;;;;;8.68;4.63;;;;;;;26.78;17.78;97584.50;5054097;28;20131;-79
2021/03/30 11:16:28;;;;;;;10.30;5.22;;;;;;;27.10;15.72;97585.06;5046068;28;20048;-79
2021/03/30 11:18:56;;;;;;;12.35;4.90;;;;;;;25.00;16.99;97574.50;5055700;28;20537;-79
2021/03/30 11:21:24;;;;;;;9.82;4.70;;;;;;;24.60;18.53;97580.97;5040409;28;20016;-79
2021/03/30 11:24:00;;;;;;;7.75;5.20;;;;;;;24.57;18.00;97581.38;5059157;28;20056;-79
2021/03/30 11:26:28;;;;;;;9.95;4.47;;;;;;;25.94;17.62;97570.78;5041448;28;20090;-79
2021/03/30 11:37:44;;;;;;;9.25;3.92;;;;;;;28.03;16.25;97561.00;5010579;28;20140;-80
2021/03/30 11:45:03;;;;;;;9.05;4.72;;;;;;;27.52;16.30;97543.66;4989270;28;20123;-79
2021/03/30 11:47:55;;;;;;;8.70;5.10;;;;;;;27.74;16.63;97547.41;5064709;28;20655;-80
2021/03/30 11:50:33;;;;;;;7.70;4.88;;;;;;;25.63;18.17;97552.88;5055911;28;20047;-79
2021/03/30 11:53:23;;;;;;;9.15;5.40;;;;;;;25.60;18.22;97554.13;5058542;28;20131;-78
2021/03/30 11:56:13;;;;;;;8.25;4.70;;;;;;;26.12;17.52;97544.88;5059891;28;20398;-78
2021/03/30 11:58:39;;;;;;;7.85;4.15;;;;;;;26.88;17.09;97546.16;5079872;28;20036;-79
2021/03/30 12:01:10;;;;;;;8.82;4.78;;;;;;;26.83;17.19;97544.16;5044817;28;20127;-79
2021/03/30 12:03:37;;;;;;;7.87;4.47;;;;;;;27.25;16.73;97538.72;5066234;28;20429;-80
2021/03/30 12:06:10;;;;;;;7.82;4.30;;;;;;;27.33;16.39;97541.09;5050633;28;20028;-79
2021/03/30 12:08:36;;;;;;;;;;;;;;;26.65;17.70;97536.91;5067632;28;20044;-80
2021/03/30 12:11:10;;;;;;;7.82;4.22;;;;;;;26.77;17.51;97540.50;5061883;28;19916;-79
2021/03/30 12:13:42;;;;;;;6.50;4.18;;;;;;;27.43;16.29;97526.97;5038565;28;20039;-78
2021/03/30 12:16:26;;;;;;;7.05;4.30;;;;;;;28.30;15.87;97526.13;5088789;28;20487;-79
2021/03/30 12:19:02;;;;;;;8.15;3.92;;;;;;;27.66;16.12;97523.44;5054188;28;20113;-80